Carrollton, Mississippi
Current Conditions -  °F | °C
As of 1:53 PM on Friday 31 Oct 2014 (Local Time) from KGWO Reporting Station
Broken Clouds Broken Clouds  
Wind Chill: 62°   Ceiling: 3300
Heat Index: 62°   Visibility: 10mi
Dew Point: 47°   Wind: 12mph
Humidity: 58%   Direction: 350°N
Pressure: 30.1"   Gusts: 22mph
Location:  33.51°N, 89.92°W
Report Text: KGWO 311853Z AUTO 35010G19KT 10SM BKN033 17/08 A3010 RMK AO2 SLP190 T01670083 TSNO
Loading
Personal Weather Stations






























Interactive Weather Map
Tropical Storm Tracking
New forecast layout! Learn more

10-Day Weather Forecast

Advertisements
Track Severe Weather on mobile